Latest Weather Observations for Mareeba

IDQ60801

Issued at 10:02 pm EST Sunday 22 January 2017 (issued every 30 minutes, with the page automatically refreshed every 10 minutes)

About weather observations | Map of weather stations | Latest weather observations for QLD | Other Formats
Station Details ID: 031210 Name: MAREEBA AIRPORT Lat: -17.07 Lon: 145.43 Height: 471.93 m
Data from the previous 72 hours. | See also: Recent months at Mareeba
Date/Time
EST
Temp
°C
App
Temp
°C
Dew
Point
°C
Rel
Hum
%
Delta-T
°C
Wind Press
QNH
hPa
Press
MSL
hPa
Rain since
9am
mm
Dir  Spd
km/h
Gust
km/h
Spd
kts
Gust
kts
22/10:00pm 24.0 27.8 21.7 87 1.6 ENE 4 7 2 4 1013.4 - 0.2
22/09:30pm 24.6 28.1 21.9 85 1.8 E 6 9 3 5 1013.3 - 0.2
22/09:00pm 24.5 28.0 21.8 85 1.8 SE 6 7 3 4 1013.2 1010.0 0.2
22/08:30pm 25.2 28.7 21.9 82 2.2 E 6 11 3 6 1013.1 - 0.2
22/08:00pm 25.5 29.4 21.8 80 2.5 ESE 4 9 2 5 1012.3 - 0.2
22/07:30pm 25.9 28.1 21.8 78 2.8 NNE 13 20 7 11 1011.9 - 0.2
22/07:00pm 26.5 28.5 21.5 74 3.4 NE 13 20 7 11 1011.5 - 0.2
22/06:30pm 27.4 29.0 21.4 70 4.1 NNE 15 20 8 11 1011.1 - 0.2
22/06:00pm 27.9 28.7 21.4 67 4.4 NNE 19 30 10 16 1010.6 1007.4 0.2
22/05:30pm 28.6 30.3 21.6 66 4.8 NNE 15 26 8 14 1010.0 - 0.2
22/05:00pm 29.2 30.5 21.7 64 5.1 NE 17 30 9 16 1009.5 - 0.2
22/04:30pm 30.1 31.8 22.3 63 5.4 N 17 28 9 15 1009.3 - 0.2
22/04:00pm 30.2 31.1 21.6 60 5.9 NNE 19 28 10 15 1009.3 - 0.2
22/03:30pm 31.2 32.5 21.7 57 6.5 NNE 17 30 9 16 1009.6 - 0.2
22/03:00pm 31.4 32.2 21.3 55 6.9 NNE 19 26 10 14 1009.8 1006.6 0.2
22/02:30pm 31.6 32.6 20.2 50 7.7 NNE 15 24 8 13 1010.0 - 0.2
22/02:00pm 31.8 32.6 21.3 53 7.2 NE 19 28 10 15 1010.2 - 0.2
22/01:30pm 31.9 33.0 18.8 45 8.7 N 11 20 6 11 1010.6 - 0.2
22/01:00pm 31.7 33.0 19.3 47 8.3 NNE 11 17 6 9 1011.1 - 0.2
22/12:30pm 31.3 32.7 19.6 49 7.8 NE 11 19 6 10 1011.3 - 0.2
22/12:00pm 31.2 32.7 18.9 48 8.1 NE 9 15 5 8 1011.5 1008.3 0.2
22/11:30am 30.6 33.1 20.2 53 7.0 NNE 7 15 4 8 1011.9 - 0.2
22/11:00am 29.3 31.5 19.6 56 6.4 NNW 7 15 4 8 1012.3 - 0.2
22/10:30am 28.8 31.3 21.0 62 5.3 N 9 15 5 8 1012.6 - 0.2
22/10:00am 28.1 31.7 20.6 63 5.0 SE 2 9 1 5 1012.6 - 0.2
22/09:30am 26.5 30.9 22.1 77 3.0 WSW 2 6 1 3 1012.5 - 0.0
22/09:00am 25.2 29.8 21.7 81 2.4 CALM 0 4 0 2 1012.9 1009.8 0.4
22/08:30am 24.2 27.4 21.7 86 1.7 ESE 7 11 4 6 1012.7 - 0.4
22/08:00am 23.8 27.1 21.9 89 1.3 ESE 7 9 4 5 1012.6 - 0.4
22/07:30am 23.6 27.9 21.9 90 1.1 SE 2 7 1 4 1012.4 - 0.4
22/07:00am 22.2 27.0 22.2 100 0.0 CALM 0 0 0 0 1012.3 - 0.4
22/06:30am 21.7 26.3 21.7 100 0.0 CALM 0 0 0 0 1012.0 - 0.4
22/06:00am 21.6 26.1 21.6 100 0.0 CALM 0 0 0 0 1011.6 1008.4 0.4
22/05:30am 21.5 25.4 21.2 98 0.2 S 2 7 1 4 1011.3 - 0.4
22/05:00am 21.7 24.8 21.4 98 0.2 SE 7 9 4 5 1010.7 - 0.4
22/04:30am 21.9 25.1 21.7 99 0.1 SE 7 9 4 5 1010.6 - 0.2
22/04:00am 22.2 26.9 21.9 98 0.2 CALM 0 0 0 0 1010.6 - 0.2
22/03:30am 22.1 25.5 21.6 97 0.3 S 6 9 3 5 1010.6 - 0.2
22/03:00am 22.6 27.5 22.3 98 0.2 CALM 0 0 0 0 1010.6 1007.4 0.2
22/02:30am 22.5 27.1 21.8 96 0.5 CALM 0 0 0 0 1010.7 - 0.2
22/02:00am 22.9 27.6 21.9 94 0.7 CALM 0 0 0 0 1010.9 - 0.2
22/01:30am 23.5 28.6 22.7 95 0.5 CALM 0 0 0 0 1011.1 - 0.2
22/01:00am 23.6 27.1 22.8 95 0.5 S 9 9 5 5 1011.7 - 0.2
22/12:30am 23.9 28.9 22.5 92 1.0 CALM 0 0 0 0 1012.2 - 0.2
22/12:00am 24.6 29.0 23.4 93 0.8 SE 6 7 3 4 1012.5 1009.3 0.2
 
Date/Time
EST
Temp
°C
App
Temp
°C
Dew
Point
°C
Rel
Hum
%
Delta-T
°C
Wind Press
QNH
hPa
Press
MSL
hPa
Rain since
9am
mm
Dir  Spd
km/h
Gust
km/h
Spd
kts
Gust
kts
21/11:30pm 24.7 30.4 23.7 94 0.7 CALM 0 4 0 2 1012.7 - 0.2
21/11:00pm 24.3 28.6 23.3 94 0.7 SE 6 9 3 5 1012.8 - 0.2
21/10:30pm 24.6 29.3 23.4 93 0.8 ESE 4 7 2 4 1013.1 - 0.2
21/10:00pm 25.0 30.5 23.4 91 1.1 CALM 0 6 0 3 1012.7 - 0.2
21/09:30pm 25.2 30.7 23.4 90 1.2 CALM 0 0 0 0 1012.3 - 0.2
21/09:00pm 25.3 29.9 23.2 88 1.5 NE 4 7 2 4 1011.9 1008.7 0.2
21/08:30pm 25.7 30.8 23.4 87 1.6 NW 2 9 1 5 1011.6 - 0.2
21/08:00pm 26.0 30.2 23.5 86 1.7 NE 7 13 4 7 1011.0 - 0.2
21/07:30pm 26.7 31.3 23.2 81 2.4 NE 4 7 2 4 1010.7 - 0.2
21/07:00pm 27.5 31.5 23.1 77 3.0 NE 7 13 4 7 1010.1 - 0.2
21/06:30pm 28.3 31.5 23.0 73 3.7 N 11 17 6 9 1009.5 - 0.2
21/06:00pm 28.9 32.1 23.1 71 4.0 NNE 11 19 6 10 1009.0 1005.8 0.2
21/05:30pm 29.1 35.1 24.2 75 3.5 CALM 0 0 0 0 1008.5 - 0.2
21/05:00pm 29.0 33.2 23.4 72 3.9 SW 7 28 4 15 1008.1 - 0.2
21/04:30pm 31.8 34.6 21.6 54 7.0 NE 9 19 5 10 1007.8 - 0.0
21/04:00pm 31.9 34.4 21.1 52 7.4 NE 9 19 5 10 1008.0 - 0.0
21/03:30pm 31.6 33.8 21.2 54 7.1 NE 11 19 6 10 1008.3 - 0.0
21/03:00pm 31.1 32.8 21.0 55 6.9 NNE 13 20 7 11 1008.7 1005.4 0.0
21/02:30pm 30.8 31.2 19.8 52 7.4 NNE 17 24 9 13 1009.1 - 0.0
21/02:00pm 29.8 29.9 18.3 50 7.5 NNE 15 24 8 13 1009.7 - 0.0
21/01:30pm 31.1 32.3 19.8 51 7.6 NNE 13 20 7 11 1009.7 - 0.0
21/01:00pm 30.8 33.6 20.4 54 7.0 N 6 9 3 5 1010.0 - 0.0
21/12:30pm 31.5 34.1 20.4 51 7.5 S 7 11 4 6 1010.2 - 0.0
21/12:00pm 31.6 34.3 20.2 50 7.7 W 6 13 3 7 1010.6 1007.4 0.0
21/11:30am 31.1 32.6 21.3 56 6.7 W 15 20 8 11 1011.3 - 0.0
21/11:00am 30.3 32.8 21.7 60 5.9 W 11 19 6 10 1011.9 - 0.0
21/10:30am 29.4 30.8 22.6 67 4.7 W 19 26 10 14 1012.4 - 0.0
21/10:00am 28.9 30.7 21.9 66 4.8 WSW 15 20 8 11 1012.8 - 0.0
21/09:30am 27.7 30.1 22.2 72 3.8 W 13 19 7 10 1012.8 - 0.0
21/09:00am 26.7 29.4 22.8 79 2.7 W 13 20 7 11 1013.1 1009.9 12.6
21/08:30am 26.1 28.3 22.6 81 2.4 W 15 20 8 11 1012.9 - 12.4
21/08:00am 24.3 29.5 22.9 92 1.0 CALM 0 7 0 4 1012.9 - 12.4
21/07:30am 23.2 28.0 22.2 94 0.7 CALM 0 0 0 0 1012.9 - 12.4
21/07:00am 22.9 27.7 22.2 96 0.5 CALM 0 0 0 0 1012.6 - 12.4
21/06:30am 21.7 26.2 21.5 99 0.1 CALM 0 0 0 0 1012.4 - 12.4
21/06:00am 21.6 26.1 21.6 100 0.0 CALM 0 0 0 0 1012.0 1008.8 12.4
21/05:30am 21.7 26.3 21.7 100 0.0 CALM 0 0 0 0 1011.6 - 12.4
21/05:00am 21.7 26.2 21.5 99 0.1 CALM 0 0 0 0 1011.2 - 12.4
21/04:30am 21.8 26.3 21.6 99 0.1 CALM 0 0 0 0 1011.0 - 12.4
21/04:00am 21.7 26.1 21.4 98 0.2 CALM 0 0 0 0 1011.0 - 12.4
21/03:30am 21.8 26.3 21.5 98 0.2 CALM 0 0 0 0 1010.9 - 12.4
21/03:00am 21.8 26.2 21.3 97 0.3 CALM 0 0 0 0 1010.7 1007.6 12.4
21/02:30am 22.0 26.5 21.5 97 0.3 CALM 0 0 0 0 1010.4 - 12.4
21/02:00am 22.1 26.7 21.8 98 0.2 CALM 0 0 0 0 1010.4 - 12.4
21/01:30am 22.1 26.7 21.8 98 0.2 CALM 0 0 0 0 1010.7 - 12.4
21/01:00am 22.1 26.7 21.8 98 0.2 CALM 0 0 0 0 1011.1 - 12.4
21/12:30am 21.9 26.4 21.6 98 0.2 CALM 0 0 0 0 1011.5 - 12.4
21/12:00am 21.9 25.6 21.4 97 0.3 SSE 4 7 2 4 1011.6 1008.4 12.4
 
Date/Time
EST
Temp
°C
App
Temp
°C
Dew
Point
°C
Rel
Hum
%
Delta-T
°C
Wind Press
QNH
hPa
Press
MSL
hPa
Rain since
9am
mm
Dir  Spd
km/h
Gust
km/h
Spd
kts
Gust
kts
20/11:30pm 22.4 27.0 21.7 96 0.5 CALM 0 0 0 0 1011.8 - 12.4
20/11:00pm 22.6 27.4 22.1 97 0.3 CALM 0 0 0 0 1012.0 - 12.4
20/10:30pm 22.7 26.4 22.2 97 0.3 S 6 7 3 4 1011.9 - 12.4
20/10:00pm 22.6 26.5 21.8 95 0.5 ESE 4 7 2 4 1012.0 - 12.4
20/09:30pm 22.9 27.0 22.2 96 0.5 E 4 9 2 5 1011.9 - 12.4
20/09:00pm 23.0 26.0 22.0 94 0.7 SSE 9 20 5 11 1011.8 1008.6 12.4
20/08:30pm 23.6 26.6 22.6 94 0.7 SSE 11 15 6 8 1011.7 - 4.2
20/08:00pm 23.7 27.3 22.3 92 1.0 E 7 15 4 8 1011.4 - 4.2
20/07:30pm 23.8 27.3 22.2 91 1.1 ESE 7 11 4 6 1011.1 - 4.2
20/07:00pm 23.9 25.2 21.6 87 1.5 E 17 26 9 14 1010.4 - 3.6
20/06:30pm 25.6 27.9 21.3 77 2.9 E 11 15 6 8 1009.9 - 3.2
20/06:00pm 25.6 28.0 21.5 78 2.8 NNE 11 15 6 8 1009.2 1006.0 3.2
20/05:30pm 26.0 28.5 21.0 74 3.4 NNE 9 17 5 9 1009.1 - 3.2
20/05:00pm 26.2 28.4 21.2 74 3.4 NNE 11 22 6 12 1008.5 - 2.8
20/04:30pm 26.0 27.9 21.4 76 3.1 NNE 13 20 7 11 1008.2 - 2.8
20/04:00pm 27.4 28.9 20.5 66 4.6 NNE 13 19 7 10 1008.4 - 1.6
20/03:30pm 31.4 31.1 19.1 48 8.2 W 19 32 10 17 1008.0 - 0.0
20/03:00pm 33.1 33.7 20.3 47 8.7 WNW 17 24 9 13 1008.1 1004.9 0.0
20/02:30pm 33.0 31.8 17.6 40 10.1 W 20 33 11 18 1008.4 - 0.0
20/02:00pm 32.8 31.6 19.3 45 9.0 W 24 30 13 16 1009.1 - 0.0
20/01:30pm 31.9 32.0 16.6 39 9.8 W 11 19 6 10 1009.5 - 0.0
20/01:00pm 31.4 30.7 18.7 46 8.4 W 20 30 11 16 1009.9 - 0.0
20/12:30pm 30.6 30.7 19.9 52 7.2 W 19 28 10 15 1010.4 - 0.0
20/12:00pm 30.4 31.1 19.7 52 7.1 W 15 30 8 16 1011.0 1007.8 0.0
20/11:30am 29.6 29.2 18.1 50 7.5 W 17 28 9 15 1011.6 - 0.0
20/11:00am 28.8 29.7 20.0 59 5.9 W 15 28 8 15 1012.0 - 0.0
20/10:30am 28.2 27.9 19.1 57 6.0 W 19 28 10 15 1012.3 - 0.0
20/10:00am 27.3 27.8 20.1 64 4.8 W 17 24 9 13 1012.9 - 0.0
20/09:30am 26.7 26.9 19.3 64 4.9 W 17 26 9 14 1013.2 - 0.0
20/09:00am 25.8 26.5 19.7 69 4.0 WNW 15 20 8 11 1013.2 1010.0 0.2
20/08:30am 25.1 27.1 19.2 70 3.9 NW 7 11 4 6 1012.9 - 0.2
20/08:00am 23.7 26.6 19.8 79 2.6 N 4 7 2 4 1013.1 - 0.2
20/07:30am 22.8 25.4 20.1 85 1.8 WNW 6 7 3 4 1012.8 - 0.2
20/07:00am 21.8 25.2 19.4 86 1.6 CALM 0 0 0 0 1012.2 - 0.2
20/06:30am 20.7 23.4 19.4 92 0.8 ESE 4 7 2 4 1011.9 - 0.2
20/06:00am 20.0 23.2 18.8 93 0.8 CALM 0 0 0 0 1011.6 1008.4 0.2
20/05:30am 20.2 22.9 18.7 91 1.0 SE 2 7 1 4 1011.1 - 0.2
20/05:00am 20.5 22.5 18.8 90 1.1 ESE 6 7 3 4 1010.5 - 0.2
20/04:30am 21.0 23.2 19.3 90 1.1 ESE 6 7 3 4 1010.2 - 0.2
20/04:00am 21.2 23.6 20.0 93 0.8 S 7 9 4 5 1010.1 - 0.2
20/03:30am 20.7 24.1 19.4 92 0.8 CALM 0 0 0 0 1010.0 - 0.2
20/03:00am 20.4 22.3 18.5 89 1.2 SE 6 7 3 4 1009.9 1006.7 0.2
20/02:30am 20.7 22.8 19.0 90 1.1 SE 6 7 3 4 1010.1 - 0.2
20/02:00am 20.8 24.0 18.9 89 1.2 CALM 0 0 0 0 1010.1 - 0.2
20/01:30am 20.8 23.9 18.7 88 1.3 CALM 0 0 0 0 1010.3 - 0.2
20/01:00am 21.1 24.4 19.2 89 1.2 CALM 0 0 0 0 1010.7 - 0.2
20/12:30am 21.5 25.3 20.1 92 0.9 CALM 0 0 0 0 1011.2 - 0.2
20/12:00am 21.5 25.2 20.0 91 1.0 CALM 0 0 0 0 1011.6 1008.4 0.2
 
Date/Time
EST
Temp
°C
App
Temp
°C
Dew
Point
°C
Rel
Hum
%
Delta-T
°C
Wind Press
QNH
hPa
Press
MSL
hPa
Rain since
9am
mm
Dir  Spd
km/h
Gust
km/h
Spd
kts
Gust
kts
19/11:30pm 22.1 26.0 20.4 90 1.1 CALM 0 0 0 0 1011.9 - 0.2
19/11:00pm 22.7 26.7 20.6 88 1.4 CALM 0 0 0 0 1012.1 - 0.2
19/10:30pm 23.1 26.1 20.8 87 1.5 E 6 7 3 4 1012.1 - 0.2

Other Formats:

Comma delimited format used in spreadsheet applications
http://www.bom.gov.au/fwo/IDQ60801/IDQ60801.95286.axf

JavaScript Object Notation format (JSON) in row-major order
http://www.bom.gov.au/fwo/IDQ60801/IDQ60801.95286.json